Time;durP1;ratioP1;P1;durP2;ratioP2;P2;SDS_P1;SDS_P2;PMS_P1;PMS_P2;Temp;Humidity;BMP_temperature;BMP_pressure;BME280_temperature;BME280_humidity;BME280_pressure;Samples;Min_cycle;Max_cycle;Signal;HPM_P1;HPM_P2
2024/03/25 00:01:13;;;;;;;3.83;2.53;;;;;;;14.60;43.52;97236.78;4955591;28;20478;-70
2024/03/25 00:03:38;;;;;;;5.63;3.08;;;;;;;14.63;43.50;97233.78;4923413;28;20046;-70
2024/03/25 00:06:04;;;;;;;4.15;2.78;;;;;;;14.60;43.22;97234.13;4955574;28;20037;-70
2024/03/25 00:08:30;;;;;;;5.13;2.72;;;;;;;14.59;43.38;97239.53;4939440;28;20391;-70
2024/03/25 00:10:55;;;;;;;4.38;3.13;;;;;;;14.54;43.51;97245.31;4955592;28;20023;-70
2024/03/25 00:13:21;;;;;;;5.25;3.00;;;;;;;14.51;43.36;97245.69;4939314;28;20560;-70
2024/03/25 00:15:47;;;;;;;7.80;3.00;;;;;;;14.55;43.30;97240.88;4939591;28;20031;-70
2024/03/25 00:18:12;;;;;;;4.15;3.15;;;;;;;14.55;43.40;97244.34;4939619;28;20097;-70
2024/03/25 00:20:38;;;;;;;6.55;3.05;;;;;;;14.48;43.53;97227.66;4954940;28;20035;-70
2024/03/25 00:23:03;;;;;;;4.60;2.70;;;;;;;14.53;43.60;97237.63;4939591;28;20046;-70
2024/03/25 00:25:29;;;;;;;7.65;3.60;;;;;;;14.54;43.55;97245.31;4939553;28;20047;-70
2024/03/25 00:27:54;;;;;;;4.10;2.88;;;;;;;14.48;43.55;97236.38;4955107;28;20047;-69
2024/03/25 00:30:20;;;;;;;4.40;2.78;;;;;;;14.52;43.64;97247.31;4955321;28;20030;-70
2024/03/25 00:32:46;;;;;;;7.85;3.08;;;;;;;14.47;43.74;97232.09;4958347;28;20042;-70
2024/03/25 00:35:12;;;;;;;5.38;2.95;;;;;;;14.48;43.66;97227.66;4926747;28;20042;-69
2024/03/25 00:37:37;;;;;;;5.13;3.20;;;;;;;14.47;43.86;97218.97;4926202;28;20054;-71
2024/03/25 00:40:04;;;;;;;5.20;3.33;;;;;;;14.53;43.83;97227.97;4926772;28;20039;-70
2024/03/25 00:42:30;;;;;;;6.30;3.83;;;;;;;14.51;43.74;97221.25;4958504;28;20518;-70
2024/03/25 00:44:55;;;;;;;6.22;3.42;;;;;;;14.53;43.81;97227.97;4942686;28;20109;-70
2024/03/25 00:47:21;;;;;;;5.90;3.45;;;;;;;14.53;43.94;97227.97;4958661;28;20039;-70
2024/03/25 00:49:47;;;;;;;5.97;3.13;;;;;;;14.53;43.92;97221.88;4958648;28;20502;-70
2024/03/25 00:52:12;;;;;;;4.43;3.30;;;;;;;14.55;43.82;97225.97;4958580;28;20034;-70
2024/03/25 00:54:38;;;;;;;5.43;3.15;;;;;;;14.55;43.74;97217.25;4958442;28;20515;-70
2024/03/25 00:57:03;;;;;;;5.18;3.05;;;;;;;14.53;43.89;97222.72;4958866;28;20041;-69
2024/03/25 00:59:29;;;;;;;4.88;3.22;;;;;;;14.49;44.07;97224.06;4958553;28;20509;-70
2024/03/25 01:01:54;;;;;;;6.40;3.10;;;;;;;14.44;44.43;97213.28;4974746;28;20023;-69
2024/03/25 01:04:20;;;;;;;11.75;3.83;;;;;;;14.39;44.30;97205.94;4957698;28;20034;-70
2024/03/25 01:06:45;;;;;;;5.85;3.13;;;;;;;14.33;44.31;97182.19;4958191;28;20039;-69
2024/03/25 01:09:12;;;;;;;4.75;3.15;;;;;;;14.34;44.57;97191.69;4926394;28;20035;-69
2024/03/25 01:11:37;;;;;;;4.95;3.22;;;;;;;14.30;44.60;97173.69;4957979;28;20023;-69
2024/03/25 01:14:03;;;;;;;5.75;3.20;;;;;;;14.35;44.65;97174.97;4942049;28;20066;-69
2024/03/25 01:16:28;;;;;;;4.68;3.25;;;;;;;14.34;44.57;97182.00;4975440;28;20035;-70
2024/03/25 01:18:54;;;;;;;3.97;3.05;;;;;;;14.34;44.63;97168.88;4941882;28;20094;-70
2024/03/25 01:21:19;;;;;;;6.28;3.10;;;;;;;14.38;44.43;97170.16;4957981;28;20037;-69
2024/03/25 01:23:45;;;;;;;5.18;3.17;;;;;;;14.35;44.25;97164.47;4926004;28;20475;-70
2024/03/25 01:26:10;;;;;;;6.95;2.80;;;;;;;14.40;44.23;97160.28;4957903;28;20050;-70
2024/03/25 01:28:37;;;;;;;4.13;2.97;;;;;;;14.41;44.23;97151.44;4957711;28;20069;-70
2024/03/25 01:31:04;;;;;;;5.15;2.78;;;;;;;14.40;44.18;97136.66;4942370;28;20039;-70
2024/03/25 01:33:30;;;;;;;3.75;2.88;;;;;;;14.46;44.09;97135.16;4941972;28;20027;-70
2024/03/25 01:35:55;;;;;;;5.40;2.72;;;;;;;14.46;44.17;97140.41;4957821;28;20030;-70
2024/03/25 01:38:21;;;;;;;7.95;3.13;;;;;;;14.47;44.00;97144.66;4925726;28;20042;-70
2024/03/25 01:40:47;;;;;;;4.88;3.08;;;;;;;14.48;44.29;97146.28;4975048;28;20072;-70
2024/03/25 01:43:12;;;;;;;5.75;3.20;;;;;;;14.48;43.94;97146.28;4941001;28;20089;-69
2024/03/25 01:45:38;;;;;;;8.65;3.10;;;;;;;14.50;44.09;97149.56;4974886;28;20026;-70
2024/03/25 01:48:07;;;;;;;9.38;2.90;;;;;;;14.50;44.25;97139.06;4974631;28;20055;-70
2024/03/25 01:50:37;;;;;;;4.22;2.75;;;;;;;14.50;44.16;97141.69;4925633;28;20031;-70
2024/03/25 01:53:03;;;;;;;4.55;3.05;;;;;;;14.46;43.96;97135.94;4925546;28;20152;-69
2024/03/25 01:55:29;;;;;;;4.13;3.00;;;;;;;14.51;44.23;97142.47;4940587;28;20502;-69
2024/03/25 01:57:55;;;;;;;4.57;2.70;;;;;;;14.53;43.92;97143.94;4957778;28;20483;-69
2024/03/25 02:00:21;;;;;;;7.05;2.72;;;;;;;14.53;44.03;97133.44;4941393;28;20034;-69
2024/03/25 02:02:49;;;;;;;3.90;2.67;;;;;;;14.53;44.35;97136.06;4957308;28;20027;-69
2024/03/25 02:05:15;;;;;;;4.43;2.60;;;;;;;14.52;44.34;97137.03;4926312;28;20026;-69
2024/03/25 02:07:41;;;;;;;6.43;3.10;;;;;;;14.55;44.09;97136.69;4957112;28;20101;-69
2024/03/25 02:10:09;;;;;;;4.65;3.03;;;;;;;14.56;44.08;97134.88;4941193;28;20029;-69
2024/03/25 02:12:35;;;;;;;4.00;3.15;;;;;;;14.58;44.27;97132.88;4941667;28;20146;-69
2024/03/25 02:15:01;;;;;;;5.03;2.95;;;;;;;14.57;43.96;97126.00;4941096;28;20525;-69
2024/03/25 02:17:26;;;;;;;4.00;2.60;;;;;;;14.60;44.16;97120.41;4940607;28;20090;-69
2024/03/25 02:19:52;;;;;;;3.20;2.17;;;;;;;14.59;44.17;97118.75;4974756;28;20030;-69
2024/03/25 02:22:17;;;;;;;4.78;2.60;;;;;;;14.57;44.03;97111.06;4940520;28;20042;-69
2024/03/25 02:24:48;;;;;;;5.50;2.78;;;;;;;14.59;44.12;97105.63;4956827;28;20027;-69
2024/03/25 02:27:16;;;;;;;4.63;2.67;;;;;;;14.61;44.00;97116.78;4941703;28;20569;-69
2024/03/25 02:29:42;;;;;;;4.45;2.60;;;;;;;14.62;44.03;97127.09;4957077;28;20402;-69
2024/03/25 02:32:10;;;;;;;3.85;2.55;;;;;;;14.57;44.00;97121.56;4940685;28;20039;-69
2024/03/25 02:34:41;;;;;;;9.27;2.63;;;;;;;14.61;43.98;97133.38;4957209;28;20027;-69
2024/03/25 02:37:06;;;;;;;3.28;2.38;;;;;;;14.61;44.17;97124.66;4941524;28;20096;-69
2024/03/25 02:39:32;;;;;;;3.72;2.40;;;;;;;14.62;44.16;97116.59;4940022;28;20046;-69
2024/03/25 02:41:57;;;;;;;3.80;2.65;;;;;;;14.61;44.28;97103.66;4940750;28;20043;-69
2024/03/25 02:44:23;;;;;;;7.20;2.33;;;;;;;14.61;44.28;97108.91;4939954;28;20505;-70
2024/03/25 02:46:49;;;;;;;5.07;2.40;;;;;;;14.61;44.16;97129.91;4940571;28;20114;-69
2024/03/25 02:49:14;;;;;;;2.97;2.35;;;;;;;14.61;44.22;97137.78;4940579;28;20090;-71
2024/03/25 02:51:40;;;;;;;6.00;2.40;;;;;;;14.60;44.33;97150.09;4956320;28;20058;-69
2024/03/25 02:54:05;;;;;;;5.20;2.20;;;;;;;14.62;44.38;97166.50;4940650;28;20034;-69
2024/03/25 02:56:31;;;;;;;4.57;2.13;;;;;;;14.61;44.35;97203.44;4973823;28;20070;-69
2024/03/25 02:58:56;;;;;;;4.28;1.98;;;;;;;14.58;44.73;97228.22;4940060;28;20034;-69
2024/03/25 03:01:22;;;;;;;3.65;2.25;;;;;;;14.60;44.62;97236.78;4956484;28;20545;-70
2024/03/25 03:03:47;;;;;;;3.22;2.60;;;;;;;14.59;44.94;97271.06;4940221;28;20050;-69
2024/03/25 03:06:13;;;;;;;4.53;3.17;;;;;;;14.53;45.30;97274.38;4940323;28;20037;-70
2024/03/25 03:08:38;;;;;;;7.43;4.00;;;;;;;14.54;45.69;97287.34;4956430;28;20035;-70
2024/03/25 03:11:04;;;;;;;8.02;5.57;;;;;;;14.49;45.89;97284.44;4956289;28;20035;-70
2024/03/25 03:13:29;;;;;;;11.35;6.82;;;;;;;14.46;46.58;97280.34;4956074;28;20506;-70
2024/03/25 03:15:55;;;;;;;11.95;6.03;;;;;;;14.40;46.89;97267.13;4956218;28;20038;-70
2024/03/25 03:18:20;;;;;;;8.43;5.47;;;;;;;14.33;47.32;97264.41;4973506;28;20034;-70
2024/03/25 03:20:47;;;;;;;9.45;4.95;;;;;;;14.20;47.80;97261.53;4939590;28;20046;-70
2024/03/25 03:23:12;;;;;;;7.72;4.00;;;;;;;14.12;48.12;97267.66;4939442;28;20073;-70
2024/03/25 03:25:38;;;;;;;7.57;3.95;;;;;;;13.97;48.25;97264.97;4953779;28;20535;-70
2024/03/25 03:28:04;;;;;;;5.90;3.08;;;;;;;13.85;48.29;97259.34;4953901;28;20034;-70
2024/03/25 03:30:29;;;;;;;5.70;2.60;;;;;;;13.78;48.56;97268.88;4956079;28;20046;-70
2024/03/25 03:32:55;;;;;;;3.92;2.40;;;;;;;13.72;48.72;97264.31;4955849;28;20058;-69
2024/03/25 03:35:20;;;;;;;4.88;1.95;;;;;;;13.57;48.96;97257.19;4955789;28;20105;-70
2024/03/25 03:37:46;;;;;;;3.67;1.80;;;;;;;13.49;48.89;97262.50;4955878;28;20034;-70
2024/03/25 03:40:11;;;;;;;3.28;1.80;;;;;;;13.43;49.37;97271.03;4940198;28;20030;-69
2024/03/25 03:42:37;;;;;;;3.10;1.60;;;;;;;13.41;49.39;97272.19;4955355;28;20436;-69
2024/03/25 03:45:03;;;;;;;2.53;1.27;;;;;;;13.30;49.67;97255.84;4956136;28;20035;-69
2024/03/25 03:47:28;;;;;;;2.83;1.42;;;;;;;13.29;49.69;97269.09;4955236;28;20035;-70
2024/03/25 03:49:54;;;;;;;2.15;1.10;;;;;;;13.21;50.10;97267.31;4955642;28;20046;-70
2024/03/25 03:52:19;;;;;;;1.58;0.93;;;;;;;13.21;50.21;97273.38;4940001;28;20027;-70
2024/03/25 03:54:45;;;;;;;2.50;0.80;;;;;;;13.19;50.33;97269.31;4955705;28;20086;-70
2024/03/25 03:57:10;;;;;;;2.03;0.90;;;;;;;13.12;50.27;97287.47;4939420;28;20553;-70
2024/03/25 03:59:35;;;;;;;1.30;0.60;;;;;;;13.14;50.11;97280.28;4940366;28;20047;-70
2024/03/25 04:02:01;;;;;;;1.83;0.65;;;;;;;13.13;50.42;97264.75;4972956;28;20035;-70
2024/03/25 04:04:26;;;;;;;2.00;0.68;;;;;;;13.13;50.52;97267.38;4939764;28;20031;-70
2024/03/25 04:06:52;;;;;;;1.85;0.60;;;;;;;13.10;50.78;97260.66;4924784;28;20038;-70
2024/03/25 04:09:18;;;;;;;1.45;0.60;;;;;;;13.05;51.03;97254.31;4941805;28;20502;-70
2024/03/25 04:11:43;;;;;;;0.80;0.40;;;;;;;13.05;50.87;97270.03;4942965;28;20035;-70
2024/03/25 04:14:08;;;;;;;1.10;0.47;;;;;;;13.07;50.98;97271.47;4959100;28;20031;-70
2024/03/25 04:16:34;;;;;;;1.30;0.40;;;;;;;13.07;51.11;97275.91;4975880;28;20031;-71
2024/03/25 04:18:59;;;;;;;2.60;1.30;;;;;;;13.09;50.92;97273.91;4959162;28;20043;-71
2024/03/25 04:21:25;;;;;;;5.80;3.40;;;;;;;13.08;51.51;97275.72;4959330;28;20515;-71
2024/03/25 04:23:50;;;;;;;9.43;5.30;;;;;;;13.06;51.30;97271.63;4959223;28;20038;-71
2024/03/25 04:26:16;;;;;;;11.48;7.00;;;;;;;13.00;51.52;97267.91;4966482;28;20037;-69
2024/03/25 04:28:41;;;;;;;12.95;7.78;;;;;;;12.98;51.53;97265.44;4962256;28;20046;-69
2024/03/25 04:31:10;;;;;;;13.18;7.85;;;;;;;12.96;51.89;97277.88;4962252;28;20504;-70
2024/03/25 04:33:35;;;;;;;;;;;;;;;12.96;52.10;97287.53;4978185;28;20784;-70
2024/03/25 04:36:01;;;;;;;14.52;8.30;;;;;;;12.91;52.16;97284.63;4978173;28;20008;-70
2024/03/25 04:38:26;;;;;;;12.40;7.35;;;;;;;12.93;52.38;97295.72;4961579;28;20097;-72
2024/03/25 04:40:51;;;;;;;12.18;7.40;;;;;;;12.94;52.48;97294.75;4995683;28;20041;-72
2024/03/25 04:43:17;;;;;;;10.02;6.13;;;;;;;12.96;52.29;97300.63;4962635;28;20031;-72
2024/03/25 04:45:42;;;;;;;10.07;6.03;;;;;;;12.95;52.27;97306.84;4978493;28;20556;-72
2024/03/25 04:48:08;;;;;;;8.40;4.85;;;;;;;12.96;52.53;97326.84;4977094;28;20049;-77
2024/03/25 04:50:33;;;;;;;8.25;4.90;;;;;;;12.96;52.59;97326.84;4995869;28;20465;-76
2024/03/25 04:52:59;;;;;;;14.05;2.17;;;;;;;13.25;62.20;97323.66;4977965;28;20022;-74
2024/03/25 04:55:25;;;;;;;11.90;4.43;;;;;;;13.55;62.46;97327.34;4977830;28;20042;-80
2024/03/25 04:57:50;;;;;;;24.27;6.82;;;;;;;13.70;61.67;97321.38;4945928;28;20409;-69
2024/03/25 05:00:18;;;;;;;15.52;8.77;;;;;;;13.69;59.33;97323.16;4995232;28;20397;-69
2024/03/25 05:02:44;;;;;;;19.02;10.93;;;;;;;13.55;58.12;97314.25;4961750;28;20041;-69
2024/03/25 05:05:09;;;;;;;22.63;11.77;;;;;;;13.47;57.33;97316.06;4978353;28;20035;-70
2024/03/25 05:07:35;;;;;;;22.63;11.10;;;;;;;13.39;56.75;97336.09;4977895;28;20413;-70
2024/03/25 05:10:01;;;;;;;16.42;9.82;;;;;;;13.33;56.35;97338.56;4961386;28;20096;-69
2024/03/25 05:12:29;;;;;;;15.52;8.95;;;;;;;13.26;56.13;97340.19;4977479;28;20470;-68
2024/03/25 05:14:58;;;;;;;11.52;7.00;;;;;;;13.19;55.96;97358.41;4994874;28;20035;-67
2024/03/25 05:17:23;;;;;;;;;;;;;;;13.14;55.70;97358.91;4977220;28;20061;-68
2024/03/25 05:19:49;;;;;;;9.68;4.63;;;;;;;13.10;57.56;97370.69;4970114;28;20378;-71
2024/03/25 05:22:14;;;;;;;6.10;3.42;;;;;;;13.15;56.71;97376.22;4965696;28;20018;-74
2024/03/25 05:24:40;;;;;;;7.15;2.90;;;;;;;13.13;56.07;97388.69;4967781;28;20023;-79
2024/03/25 05:27:05;;;;;;;4.07;2.42;;;;;;;13.21;59.89;97390.47;4950268;28;20113;-79
2024/03/25 05:29:31;;;;;;;5.13;2.55;;;;;;;13.27;58.17;97394.25;4955365;28;20042;-81
2024/03/25 05:32:00;;;;;;;6.18;2.40;;;;;;;13.34;59.64;97393.41;4958898;28;20201;-80
2024/03/25 05:34:27;;;;;;;7.30;2.08;;;;;;;13.23;58.22;97377.22;4936376;28;20034;-80
2024/03/25 05:36:53;;;;;;;4.15;2.05;;;;;;;13.41;58.34;97400.63;4966178;28;20023;-78
2024/03/25 05:39:18;;;;;;;4.88;2.38;;;;;;;13.44;57.25;97400.28;4951526;28;20026;-80
2024/03/25 05:41:44;;;;;;;5.60;2.20;;;;;;;13.43;57.04;97383.75;4932798;28;20122;-77
2024/03/25 05:44:10;;;;;;;5.68;2.47;;;;;;;13.50;56.58;97394.38;4945729;28;20038;-76
2024/03/25 05:46:35;;;;;;;4.85;2.15;;;;;;;13.52;56.41;97395.00;4929841;28;20030;-77
2024/03/25 05:49:04;;;;;;;4.55;2.28;;;;;;;13.51;56.07;97393.41;4965445;28;20145;-76
2024/03/25 05:51:30;;;;;;;5.53;2.65;;;;;;;13.51;55.72;97393.41;4967604;28;20045;-74
2024/03/25 05:53:56;;;;;;;5.22;2.80;;;;;;;13.53;55.75;97394.03;4942076;28;20580;-74
2024/03/25 05:56:21;;;;;;;5.47;2.67;;;;;;;13.56;55.34;97393.69;4969263;28;20054;-72
2024/03/25 05:58:47;;;;;;;5.07;2.78;;;;;;;13.59;55.16;97395.97;4960441;28;20132;-74
2024/03/25 06:01:12;;;;;;;5.55;2.55;;;;;;;13.56;55.01;97386.63;4963106;28;20034;-73
2024/03/25 06:03:38;;;;;;;4.35;2.50;;;;;;;13.60;54.46;97378.44;4946868;28;20026;-73
2024/03/25 06:06:03;;;;;;;4.97;2.50;;;;;;;13.61;54.52;97398.44;4948902;28;20026;-73
2024/03/25 06:08:30;;;;;;;5.28;3.08;;;;;;;13.59;54.25;97382.06;4984933;28;20045;-74
2024/03/25 06:11:00;;;;;;;4.63;2.75;;;;;;;13.57;54.22;97390.91;4973980;28;20031;-73
2024/03/25 06:13:26;;;;;;;4.40;3.08;;;;;;;13.60;53.96;97396.78;4973898;28;20038;-74
2024/03/25 06:15:51;;;;;;;5.40;3.38;;;;;;;13.62;53.75;97402.72;4971395;28;20026;-74
2024/03/25 06:18:17;;;;;;;5.32;3.30;;;;;;;13.61;53.44;97394.00;4968389;28;20034;-73
2024/03/25 06:20:42;;;;;;;5.05;3.25;;;;;;;13.64;53.29;97395.47;4960240;28;20041;-74
2024/03/25 06:23:08;;;;;;;4.35;2.83;;;;;;;13.67;53.14;97406.44;4976067;28;20446;-74
2024/03/25 06:25:35;;;;;;;4.53;3.00;;;;;;;13.66;52.92;97391.72;4960793;28;20030;-74
2024/03/25 06:28:00;;;;;;;5.53;3.67;;;;;;;13.67;52.77;97387.28;4975618;28;20133;-73
2024/03/25 06:35:54;;;;;;;5.72;4.10;;;;;;;13.67;52.30;97409.06;4993939;28;20041;-73
2024/03/25 06:38:19;;;;;;;6.25;4.10;;;;;;;13.67;52.26;97406.44;4959933;28;20470;-73
2024/03/25 06:40:45;;;;;;;7.90;3.92;;;;;;;13.70;52.20;97413.97;4976201;28;20033;-73
2024/03/25 06:43:10;;;;;;;6.50;4.25;;;;;;;13.69;51.67;97409.69;4976387;28;20104;-75
2024/03/25 06:45:36;;;;;;;5.53;3.80;;;;;;;13.78;51.48;97423.63;4960496;28;20491;-74
2024/03/25 06:48:01;;;;;;;5.78;4.03;;;;;;;13.81;51.49;97427.72;4959821;28;20050;-77
2024/03/25 06:50:27;;;;;;;5.88;4.03;;;;;;;13.84;51.60;97433.44;4960266;28;20030;-76
2024/03/25 06:52:52;;;;;;;7.35;3.90;;;;;;;13.89;51.15;97431.09;4994002;28;20042;-76
2024/03/25 06:55:22;;;;;;;4.60;3.30;;;;;;;14.03;53.25;97437.44;4964086;28;20046;-83
2024/03/25 06:57:50;;;;;;;9.13;3.28;;;;;;;14.12;54.33;97425.09;4976947;28;20034;-73
2024/03/25 07:00:16;;;;;;;6.22;3.53;;;;;;;14.19;53.57;97426.06;4944077;28;20093;-75
2024/03/25 07:02:42;;;;;;;5.68;3.40;;;;;;;14.27;52.94;97431.25;4943754;28;20494;-73
2024/03/25 07:05:07;;;;;;;4.47;3.40;;;;;;;14.27;52.55;97420.75;4943133;28;20064;-72
2024/03/25 07:07:36;;;;;;;5.25;3.42;;;;;;;14.32;52.10;97435.19;4959567;28;20022;-71
2024/03/25 07:10:02;;;;;;;6.22;3.40;;;;;;;14.26;51.48;97431.44;4960386;28;20037;-73
2024/03/25 07:12:28;;;;;;;5.28;3.40;;;;;;;14.41;51.17;97444.66;4958781;28;20038;-74
2024/03/25 07:14:54;;;;;;;5.53;2.70;;;;;;;14.46;50.92;97448.38;4959813;28;20084;-74
2024/03/25 07:17:21;;;;;;;4.97;2.60;;;;;;;14.53;50.49;97445.91;4943180;28;20034;-75
2024/03/25 07:19:47;;;;;;;4.68;2.60;;;;;;;14.64;50.10;97448.16;4959916;28;20022;-76
2024/03/25 07:22:12;;;;;;;3.72;2.35;;;;;;;14.74;49.89;97444.47;4944017;28;20210;-73
2024/03/25 07:24:38;;;;;;;3.85;2.47;;;;;;;14.93;49.38;97451.88;4975349;28;20496;-73
2024/03/25 07:27:03;;;;;;;4.38;2.42;;;;;;;15.11;48.84;97448.13;4975583;28;20065;-74
2024/03/25 07:29:29;;;;;;;3.22;2.20;;;;;;;15.33;48.66;97463.03;4959362;28;20027;-73
2024/03/25 07:31:54;;;;;;;8.27;2.30;;;;;;;15.63;48.70;97462.28;4959420;28;20403;-73
2024/03/25 07:34:20;;;;;;;4.00;1.92;;;;;;;16.20;47.27;97456.38;4944085;28;20033;-73
2024/03/25 07:36:48;;;;;;;4.93;2.33;;;;;;;16.96;45.52;97469.16;4959408;28;20560;-73
2024/03/25 07:39:14;;;;;;;7.20;2.40;;;;;;;16.99;45.52;97466.13;4975945;28;20109;-73
2024/03/25 07:41:39;;;;;;;4.28;2.15;;;;;;;17.02;45.20;97456.25;4994430;28;20526;-71
2024/03/25 07:44:05;;;;;;;3.20;2.08;;;;;;;17.08;45.01;97463.34;4963316;28;20034;-72
2024/03/25 07:46:31;;;;;;;3.17;1.90;;;;;;;17.09;44.95;97465.00;4979729;28;20034;-72
2024/03/25 07:48:56;;;;;;;4.00;1.80;;;;;;;17.09;44.57;97470.28;4963063;28;20494;-74
2024/03/25 07:51:22;;;;;;;3.20;2.00;;;;;;;17.02;44.19;97449.13;4961582;28;20165;-73
2024/03/25 07:53:48;;;;;;;3.10;1.95;;;;;;;17.02;44.09;97458.88;4945073;28;20030;-74
2024/03/25 07:56:15;;;;;;;5.70;2.45;;;;;;;17.00;43.79;97473.06;4961291;28;20038;-73
2024/03/25 07:58:40;;;;;;;3.80;2.10;;;;;;;17.25;43.15;97474.47;4961724;28;20034;-74
2024/03/25 08:01:06;;;;;;;5.38;2.05;;;;;;;17.62;42.46;97485.72;4946211;28;20071;-72
2024/03/25 08:03:31;;;;;;;3.10;2.15;;;;;;;18.37;41.05;97486.72;4979071;28;20030;-74
2024/03/25 08:05:57;;;;;;;2.97;2.00;;;;;;;19.19;39.83;97480.66;4962967;28;20038;-74
2024/03/25 08:08:22;;;;;;;4.47;1.88;;;;;;;19.46;39.50;97484.09;4978989;28;20034;-72
2024/03/25 08:10:48;;;;;;;3.35;2.40;;;;;;;20.68;38.01;97487.03;4978782;28;20085;-72
2024/03/25 08:13:13;;;;;;;3.88;2.60;;;;;;;21.69;36.73;97501.22;4978850;28;20105;-72
2024/03/25 08:15:39;;;;;;;5.13;3.50;;;;;;;22.52;35.68;97496.50;4978866;28;20041;-72
2024/03/25 08:18:04;;;;;;;5.00;3.20;;;;;;;23.27;34.47;97497.09;4946753;28;20038;-72
2024/03/25 08:20:30;;;;;;;5.05;3.20;;;;;;;23.98;33.58;97494.47;4978887;28;20514;-73
2024/03/25 08:22:55;;;;;;;4.35;2.67;;;;;;;24.67;32.78;97491.91;4978659;28;20022;-74
2024/03/25 08:25:21;;;;;;;3.65;2.72;;;;;;;25.20;31.86;97494.41;4962617;28;20030;-74
2024/03/25 08:27:46;;;;;;;3.85;2.75;;;;;;;25.32;31.69;97502.34;4946556;28;20030;-73
2024/03/25 08:30:12;;;;;;;9.60;3.20;;;;;;;25.88;30.76;97495.19;4978427;28;20030;-74
2024/03/25 08:32:38;;;;;;;3.80;2.70;;;;;;;26.39;30.03;97497.72;4962358;28;20042;-72
2024/03/25 08:35:03;;;;;;;4.75;2.40;;;;;;;27.08;29.42;97491.78;4961608;28;20038;-74
2024/03/25 08:37:29;;;;;;;3.80;2.38;;;;;;;27.54;28.84;97499.41;4946078;28;20054;-73
2024/03/25 08:39:54;;;;;;;4.85;2.25;;;;;;;27.64;28.64;97487.16;4978370;28;20521;-72
2024/03/25 08:42:21;;;;;;;2.78;2.10;;;;;;;28.05;28.05;97503.50;4978442;28;20050;-73
2024/03/25 08:44:46;;;;;;;3.35;2.50;;;;;;;28.34;27.74;97499.34;4978486;28;20406;-71
2024/03/25 08:47:12;;;;;;;3.03;1.88;;;;;;;28.67;27.07;97500.03;4962323;28;20034;-74
2024/03/25 08:49:37;;;;;;;2.35;1.67;;;;;;;28.93;26.64;97504.66;4959262;28;20570;-73
2024/03/25 08:52:03;;;;;;;3.00;1.70;;;;;;;29.22;26.59;97508.47;4958341;28;20043;-73
2024/03/25 08:54:29;;;;;;;2.17;1.55;;;;;;;29.51;26.08;97515.97;4974188;28;20046;-72
2024/03/25 08:56:54;;;;;;;2.20;1.50;;;;;;;29.52;25.75;97511.41;4974638;28;20035;-72
2024/03/25 08:59:20;;;;;;;2.05;1.48;;;;;;;29.40;25.99;97517.06;4974827;28;20438;-73
2024/03/25 09:01:45;;;;;;;2.17;1.40;;;;;;;29.48;25.87;97518.41;4942690;28;20073;-75
2024/03/25 09:04:11;;;;;;;1.52;1.10;;;;;;;29.75;25.47;97512.72;4942617;28;20138;-73
2024/03/25 09:06:37;;;;;;;1.80;1.10;;;;;;;30.07;24.83;97525.06;4974796;28;20026;-73
2024/03/25 09:11:47;;;;;;;1.95;1.00;;;;;;;29.83;25.27;97514.09;4960963;28;20041;-74
2024/03/25 09:14:12;;;;;;;1.85;1.08;;;;;;;29.75;25.21;97531.56;4974382;28;20031;-72
2024/03/25 09:16:38;;;;;;;1.50;0.95;;;;;;;30.09;25.12;97531.78;4958063;28;20490;-72
2024/03/25 09:19:03;;;;;;;1.90;0.90;;;;;;;30.36;24.31;97540.56;4974378;28;20038;-72
2024/03/25 09:21:29;;;;;;;1.50;0.90;;;;;;;30.46;24.21;97536.00;4942438;28;20410;-73
2024/03/25 09:23:57;;;;;;;1.10;0.80;;;;;;;30.51;24.27;97532.47;4942510;28;20066;-75
2024/03/25 09:26:23;;;;;;;2.40;1.00;;;;;;;30.47;24.53;97540.31;4958602;28;20023;-73
2024/03/25 09:28:48;;;;;;;1.77;0.80;;;;;;;30.45;24.26;97555.91;4958608;28;20039;-73
2024/03/25 09:31:14;;;;;;;1.27;0.90;;;;;;;30.40;24.19;97541.69;4957818;28;20411;-73
2024/03/25 09:33:39;;;;;;;1.40;0.90;;;;;;;30.38;24.40;97531.19;4974161;28;20062;-76
2024/03/25 09:36:05;;;;;;;1.77;0.82;;;;;;;30.33;24.38;97527.66;4942180;28;20101;-75
2024/03/25 09:38:31;;;;;;;0.85;0.65;;;;;;;30.29;24.36;97528.22;4942393;28;20109;-73
2024/03/25 09:40:56;;;;;;;1.60;0.90;;;;;;;29.35;25.06;97535.88;4941392;28;20042;-73
2024/03/25 09:43:42;;;;;;;1.73;1.15;;;;;;;28.50;25.58;97542.34;4958653;28;20054;-73
2024/03/25 09:46:08;;;;;;;2.05;1.00;;;;;;;27.89;25.83;97537.44;4943686;28;20035;-73
2024/03/25 09:48:34;;;;;;;1.55;1.00;;;;;;;27.14;26.48;97551.56;4957056;28;20430;-72
2024/03/25 09:50:59;;;;;;;3.22;0.95;;;;;;;26.44;26.94;97555.84;4957882;28;20039;-72
2024/03/25 09:53:25;;;;;;;2.85;1.00;;;;;;;25.93;27.58;97553.25;4973824;28;20402;-72
2024/03/25 09:55:50;;;;;;;1.30;0.93;;;;;;;25.24;28.18;97554.31;4958227;28;20035;-73
2024/03/25 09:58:16;;;;;;;1.40;1.00;;;;;;;24.50;29.04;97561.16;4958018;28;20469;-72
2024/03/25 10:00:41;;;;;;;1.58;1.10;;;;;;;23.93;29.61;97559.13;4941726;28;20038;-73
2024/03/25 10:03:07;;;;;;;1.63;1.13;;;;;;;23.40;30.55;97557.31;4957895;28;20074;-73
2024/03/25 10:05:32;;;;;;;1.73;1.08;;;;;;;22.93;31.10;97550.78;4957319;28;20031;-72
2024/03/25 10:07:58;;;;;;;2.03;1.15;;;;;;;22.54;31.61;97541.47;4957530;28;20035;-73
2024/03/25 10:10:24;;;;;;;2.60;1.20;;;;;;;22.18;32.02;97540.41;4973419;28;20022;-72
2024/03/25 10:12:49;;;;;;;2.78;1.15;;;;;;;21.94;32.24;97566.00;4956831;28;20043;-73
2024/03/25 10:15:15;;;;;;;1.85;1.08;;;;;;;21.65;32.36;97560.34;4957319;28;20034;-72
2024/03/25 10:17:41;;;;;;;2.17;1.13;;;;;;;21.72;32.26;97574.34;4957497;28;20066;-73
2024/03/25 10:20:09;;;;;;;1.80;1.27;;;;;;;21.93;32.00;97586.44;4957370;28;20501;-73
2024/03/25 10:22:42;;;;;;;1.55;1.00;;;;;;;22.23;31.90;97586.56;4957640;28;20031;-72
2024/03/25 10:25:08;;;;;;;1.23;0.90;;;;;;;22.44;31.78;97584.53;4941227;28;20573;-73
2024/03/25 10:27:33;;;;;;;1.77;1.00;;;;;;;22.61;31.46;97602.56;4941792;28;20035;-72
2024/03/25 10:29:59;;;;;;;1.30;0.80;;;;;;;22.69;31.25;97596.94;4957120;28;20099;-73
2024/03/25 10:32:24;;;;;;;1.20;0.77;;;;;;;22.97;30.87;97596.38;4957169;28;20034;-72
2024/03/25 10:34:50;;;;;;;1.45;0.88;;;;;;;23.11;30.77;97597.84;4974411;28;20034;-77
2024/03/25 10:37:16;;;;;;;1.75;0.80;;;;;;;23.28;30.37;97600.69;4957109;28;20045;-73
2024/03/25 10:39:50;;;;;;;1.15;0.73;;;;;;;23.38;30.16;97597.47;4956857;28;20077;-73
2024/03/25 10:42:19;;;;;;;3.08;0.90;;;;;;;23.47;29.78;97604.09;4957614;28;20089;-72
2024/03/25 10:44:44;;;;;;;1.10;0.60;;;;;;;23.59;29.58;97614.78;4957594;28;20034;-72
2024/03/25 10:47:11;;;;;;;1.52;0.73;;;;;;;23.61;29.15;97618.03;4940907;28;20034;-75
2024/03/25 10:50:13;;;;;;;1.20;0.70;;;;;;;23.57;29.36;97626.72;4940641;28;20142;-73
2024/03/25 10:52:38;;;;;;;1.67;0.80;;;;;;;23.49;29.55;97633.97;4902307;29;20028;-72
2024/03/25 10:55:04;;;;;;;1.40;0.80;;;;;;;23.42;29.54;97613.81;4933628;29;20511;-72
2024/03/25 10:57:30;;;;;;;1.10;0.70;;;;;;;23.42;29.70;97611.97;4933474;29;20032;-74
2024/03/25 10:59:55;;;;;;;1.35;0.75;;;;;;;23.42;29.51;97611.16;4917379;29;20043;-74
2024/03/25 11:02:21;;;;;;;1.70;0.65;;;;;;;23.30;29.44;97614.59;4917404;29;20042;-73
2024/03/25 11:04:49;;;;;;;2.13;0.90;;;;;;;23.27;29.50;97601.72;4932768;29;20043;-75
2024/03/25 11:07:14;;;;;;;1.80;0.70;;;;;;;23.18;29.62;97610.25;4917808;29;20500;-73
2024/03/25 11:09:40;;;;;;;1.30;0.70;;;;;;;23.09;29.61;97599.94;4901369;29;20050;-72
2024/03/25 11:12:06;;;;;;;1.40;0.70;;;;;;;22.98;29.30;97611.31;4933231;29;20059;-72
2024/03/25 11:14:34;;;;;;;1.92;0.82;;;;;;;22.88;29.89;97625.16;4917311;29;20126;-74
2024/03/25 11:16:59;;;;;;;1.50;0.80;;;;;;;22.71;30.08;97603.66;4917207;29;20031;-74
2024/03/25 11:19:26;;;;;;;1.20;0.65;;;;;;;22.64;29.97;97608.22;4916425;29;20534;-73
2024/03/25 11:21:52;;;;;;;1.58;0.55;;;;;;;22.43;30.19;97609.50;4932913;29;20040;-74
2024/03/25 11:24:29;;;;;;;2.13;0.93;;;;;;;22.33;30.53;97611.84;4916871;29;20039;-73
2024/03/25 11:26:55;;;;;;;3.88;0.80;;;;;;;22.15;30.65;97610.75;4967697;28;20057;-73
2024/03/25 11:29:21;;;;;;;1.83;0.80;;;;;;;22.04;30.69;97619.44;4940221;28;20035;-73
2024/03/25 11:31:47;;;;;;;2.13;0.90;;;;;;;21.89;31.00;97611.81;4956047;28;20097;-73
2024/03/25 11:34:12;;;;;;;0.93;0.63;;;;;;;21.74;31.56;97612.13;4956341;28;20023;-73
2024/03/25 11:36:37;;;;;;;4.07;0.90;;;;;;;21.59;31.50;97617.75;4955915;28;20414;-72